Time;durP1;ratioP1;P1;durP2;ratioP2;P2;SDS_P1;SDS_P2;PMS_P1;PMS_P2;Temp;Humidity;BMP_temperature;BMP_pressure;BME280_temperature;BME280_humidity;BME280_pressure;Samples;Min_cycle;Max_cycle;Signal;HPM_P1;HPM_P2
2023/10/29 00:00:08;;;;;;;13.53;5.43;;;;;;;;;;4313280;32;318461;-84
2023/10/29 00:02:34;;;;;;;11.90;5.13;;;;;;;;;;4336404;32;317630;-82
2023/10/29 00:05:01;;;;;;;12.23;5.00;;;;;;;;;;4334536;32;342981;-88
2023/10/29 00:07:28;;;;;;;9.97;4.53;;;;;;;;;;4349799;32;317828;-87
2023/10/29 00:09:55;;;;;;;10.97;4.30;;;;;;;;;;4335345;32;316485;-83
2023/10/29 00:12:22;;;;;;;7.10;3.53;;;;;;;;;;4328879;32;318353;-90
2023/10/29 00:14:50;;;;;;;11.43;4.47;;;;;;;;;;4338548;32;317306;-84
2023/10/29 00:17:17;;;;;;;10.37;4.03;;;;;;;;;;4349172;32;318304;-87
2023/10/29 00:19:44;;;;;;;12.13;4.20;;;;;;;;;;4347322;32;318587;-88
2023/10/29 00:22:11;;;;;;;11.83;5.50;;;;;;;;;;4330910;32;318875;-92
2023/10/29 00:24:38;;;;;;;8.55;4.35;;;;;;;;;;4348247;32;318520;-83
2023/10/29 00:27:05;;;;;;;8.33;4.23;;;;;;;;;;4337041;32;317287;-83
2023/10/29 00:29:31;;;;;;;15.50;6.30;;;;;;;;;;4333660;32;317003;-91
2023/10/29 00:32:00;;;;;;;12.30;6.67;;;;;;;;;;4329982;32;318313;-83
2023/10/29 00:34:26;;;;;;;14.70;6.23;;;;;;;;;;4345604;32;318471;-83
2023/10/29 00:36:53;;;;;;;11.17;5.13;;;;;;;;;;4334257;32;343527;-82
2023/10/29 00:39:20;;;;;;;17.13;5.43;;;;;;;;;;4332397;32;318696;-83
2023/10/29 00:41:46;;;;;;;13.80;6.37;;;;;;;;;;4322363;32;317661;-85
2023/10/29 00:44:13;;;;;;;19.40;6.90;;;;;;;;;;4319578;32;317850;-82
2023/10/29 00:46:41;;;;;;;11.90;5.93;;;;;;;;;;4340762;32;317868;-82
2023/10/29 00:49:10;;;;;;;13.80;5.57;;;;;;;;;;4318088;32;317990;-82
2023/10/29 00:51:36;;;;;;;15.27;5.43;;;;;;;;;;4335760;32;318420;-83
2023/10/29 00:54:04;;;;;;;14.93;5.97;;;;;;;;;;4328644;32;318042;-82
2023/10/29 00:56:31;;;;;;;9.93;4.70;;;;;;;;;;4343849;32;348264;-83
2023/10/29 00:58:58;;;;;;;8.10;4.90;;;;;;;;;;4335186;32;316470;-83
2023/10/29 01:01:25;;;;;;;15.82;6.47;;;;;;;;;;4355695;32;316527;-83
2023/10/29 01:03:52;;;;;;;14.63;5.57;;;;;;;;;;4363527;32;20784;-84
2023/10/29 01:06:20;;;;;;;25.53;11.07;;;;;;;;;;4363452;32;20249;-83
2023/10/29 01:08:47;;;;;;;18.20;8.37;;;;;;;;;;4365313;32;20353;-83
2023/10/29 01:11:14;;;;;;;15.37;6.10;;;;;;;;;;4365746;32;20332;-83
2023/10/29 01:13:40;;;;;;;16.97;5.87;;;;;;;;;;4365484;32;20254;-83
2023/10/29 01:16:07;;;;;;;11.67;4.90;;;;;;;;;;4357891;32;20321;-84
2023/10/29 01:18:34;;;;;;;9.57;4.67;;;;;;;;;;4365351;32;20806;-83
2023/10/29 01:21:00;;;;;;;11.87;4.10;;;;;;;;;;4365364;32;20303;-84
2023/10/29 01:23:30;;;;;;;9.63;4.03;;;;;;;;;;4365622;32;20752;-83
2023/10/29 01:25:58;;;;;;;11.37;3.70;;;;;;;;;;4360184;32;20312;-82
2023/10/29 01:28:24;;;;;;;11.57;3.60;;;;;;;;;;4368617;32;20246;-83
2023/10/29 01:30:51;;;;;;;8.27;3.37;;;;;;;;;;4370096;32;20238;-84
2023/10/29 01:33:18;;;;;;;9.50;4.30;;;;;;;;;;4368232;32;20308;-81
2023/10/29 01:35:44;;;;;;;7.63;3.43;;;;;;;;;;4373672;32;20242;-80
2023/10/29 01:38:11;;;;;;;6.70;3.43;;;;;;;;;;4367679;32;20977;-88
2023/10/29 01:40:39;;;;;;;9.97;3.83;;;;;;;;;;4350536;32;20334;-92
2023/10/29 01:43:06;;;;;;;7.27;4.40;;;;;;;;;;4362661;32;20250;-82
2023/10/29 01:45:32;;;;;;;16.37;4.40;;;;;;;;;;4364121;32;20941;-90
2023/10/29 01:47:59;;;;;;;9.73;3.53;;;;;;;;;;4356920;32;20254;-93
2023/10/29 01:50:26;;;;;;;11.63;3.35;;;;;;;;;;4362633;32;20312;-83
2023/10/29 01:52:53;;;;;;;8.20;3.42;;;;;;;;;;4363967;32;20348;-83
2023/10/29 01:55:20;;;;;;;11.47;3.50;;;;;;;;;;4363987;32;20851;-83
2023/10/29 01:57:49;;;;;;;8.00;3.60;;;;;;;;;;4363771;32;20334;-83
2023/10/29 02:00:17;;;;;;;10.07;3.47;;;;;;;;;;4357199;32;20288;-81
2023/10/29 02:02:45;;;;;;;7.63;2.90;;;;;;;;;;4331145;32;318514;-84
2023/10/29 02:05:11;;;;;;;4.37;2.97;;;;;;;;;;4327862;32;416659;-82
2023/10/29 02:07:38;;;;;;;8.43;3.37;;;;;;;;;;4344236;32;327226;-82
2023/10/29 02:10:06;;;;;;;8.87;5.40;;;;;;;;;;4319743;32;316449;-82
2023/10/29 02:12:32;;;;;;;14.37;6.23;;;;;;;;;;4341275;32;317289;-83
2023/10/29 02:15:02;;;;;;;19.60;11.20;;;;;;;;;;4332189;32;318746;-82
2023/10/29 02:17:30;;;;;;;17.95;14.00;;;;;;;;;;4344003;32;319821;-82
2023/10/29 02:19:57;;;;;;;18.17;12.27;;;;;;;;;;4326460;32;319085;-82
2023/10/29 02:22:26;;;;;;;14.77;12.10;;;;;;;;;;4343214;32;319599;-82
2023/10/29 02:24:53;;;;;;;23.63;12.47;;;;;;;;;;4333801;32;319508;-82
2023/10/29 02:27:19;;;;;;;25.67;11.70;;;;;;;;;;4344503;32;319463;-82
2023/10/29 02:29:47;;;;;;;12.47;10.07;;;;;;;;;;4339734;32;318645;-83
2023/10/29 02:32:13;;;;;;;14.50;10.37;;;;;;;;;;4332889;32;319608;-82
2023/10/29 02:34:40;;;;;;;18.80;9.80;;;;;;;;;;4340000;32;359363;-82
2023/10/29 02:37:07;;;;;;;17.53;9.07;;;;;;;;;;4334310;32;317784;-82
2023/10/29 02:39:35;;;;;;;9.33;5.93;;;;;;;;;;4343287;32;318294;-83
2023/10/29 02:42:02;;;;;;;7.63;4.70;;;;;;;;;;4329946;32;317481;-90
2023/10/29 02:44:28;;;;;;;14.27;4.93;;;;;;;;;;4338008;32;316513;-94
2023/10/29 02:46:55;;;;;;;8.83;5.23;;;;;;;;;;4335860;32;317833;-94
2023/10/29 02:49:22;;;;;;;10.50;4.67;;;;;;;;;;4346169;32;317525;-82
2023/10/29 02:51:48;;;;;;;8.30;4.00;;;;;;;;;;4333681;32;318714;-84
2023/10/29 02:54:15;;;;;;;12.70;6.73;;;;;;;;;;4335736;32;316644;-82
2023/10/29 02:56:43;;;;;;;11.67;6.37;;;;;;;;;;4345200;32;317619;-82
2023/10/29 02:59:11;;;;;;;11.53;6.90;;;;;;;;;;4337543;32;318948;-83
2023/10/29 03:01:38;;;;;;;10.17;5.67;;;;;;;;;;4346441;32;319150;-82
2023/10/29 03:04:05;;;;;;;15.47;6.23;;;;;;;;;;4334347;32;318248;-82
2023/10/29 03:06:33;;;;;;;7.80;4.40;;;;;;;;;;4361671;32;317855;-82
2023/10/29 03:08:59;;;;;;;10.20;4.43;;;;;;;;;;4343289;32;317112;-86
2023/10/29 03:11:26;;;;;;;12.07;4.27;;;;;;;;;;4350155;32;317723;-92
2023/10/29 03:13:54;;;;;;;6.60;3.73;;;;;;;;;;4334820;32;318686;-84
2023/10/29 03:16:21;;;;;;;6.83;4.13;;;;;;;;;;4343621;32;317266;-84
2023/10/29 03:18:48;;;;;;;7.20;3.83;;;;;;;;;;4335874;32;317477;-83
2023/10/29 03:21:17;;;;;;;10.10;4.97;;;;;;;;;;4345602;32;317192;-83
2023/10/29 03:23:43;;;;;;;12.80;5.03;;;;;;;;;;4346159;32;318408;-83
2023/10/29 03:26:10;;;;;;;14.57;9.27;;;;;;;;;;4327301;32;317764;-83
2023/10/29 03:28:37;;;;;;;22.43;13.57;;;;;;;;;;4347275;32;318255;-83
2023/10/29 03:31:12;;;;;;;19.60;11.27;;;;;;;;;;4336909;32;319938;-84
2023/10/29 03:33:39;;;;;;;21.57;9.70;;;;;;;;;;4347008;32;318689;-84
2023/10/29 03:36:06;;;;;;;18.13;7.23;;;;;;;;;;4307038;32;318225;-83
2023/10/29 03:38:33;;;;;;;15.70;7.97;;;;;;;;;;4346279;32;318214;-83
2023/10/29 03:41:00;;;;;;;12.30;7.17;;;;;;;;;;4337261;32;317901;-83
2023/10/29 03:43:27;;;;;;;18.10;7.47;;;;;;;;;;4347121;32;318075;-83
2023/10/29 03:45:54;;;;;;;10.27;5.27;;;;;;;;;;4330323;32;318330;-85
2023/10/29 03:48:22;;;;;;;8.83;4.67;;;;;;;;;;4343512;32;317509;-83
2023/10/29 03:50:49;;;;;;;13.37;5.23;;;;;;;;;;4334812;32;317269;-83
2023/10/29 03:53:16;;;;;;;9.20;4.83;;;;;;;;;;4345733;32;323116;-83
2023/10/29 03:55:43;;;;;;;16.10;5.13;;;;;;;;;;4347335;32;317391;-83
2023/10/29 03:58:09;;;;;;;14.37;5.10;;;;;;;;;;4329823;32;318784;-83
2023/10/29 04:00:36;;;;;;;9.60;4.87;;;;;;;;;;4346207;32;318573;-83
2023/10/29 04:03:03;;;;;;;14.53;5.40;;;;;;;;;;4335380;32;335753;-82
2023/10/29 04:05:34;;;;;;;8.90;4.93;;;;;;;;;;4329495;32;318735;-83
2023/10/29 04:08:01;;;;;;;12.10;5.77;;;;;;;;;;4326472;32;317576;-83
2023/10/29 04:10:28;;;;;;;12.77;5.63;;;;;;;;;;4345742;32;317976;-87
2023/10/29 04:12:54;;;;;;;16.70;6.20;;;;;;;;;;4335678;32;318987;-83
2023/10/29 04:15:21;;;;;;;10.00;5.03;;;;;;;;;;4347179;32;318553;-85
2023/10/29 04:17:49;;;;;;;11.47;5.00;;;;;;;;;;4335709;32;317970;-84
2023/10/29 04:20:16;;;;;;;19.10;6.33;;;;;;;;;;4339480;32;318526;-85
2023/10/29 04:22:44;;;;;;;27.90;6.53;;;;;;;;;;4345799;32;317921;-93
2023/10/29 04:25:11;;;;;;;12.37;4.10;;;;;;;;;;4336883;32;319032;-83
2023/10/29 04:27:38;;;;;;;10.27;4.60;;;;;;;;;;4347316;32;318289;-83
2023/10/29 04:30:05;;;;;;;10.87;4.80;;;;;;;;;;4325706;32;318368;-84
2023/10/29 04:32:33;;;;;;;12.53;5.37;;;;;;;;;;4346394;32;318601;-84
2023/10/29 04:34:59;;;;;;;12.27;5.07;;;;;;;;;;4334961;32;318000;-84
2023/10/29 04:37:26;;;;;;;16.90;4.50;;;;;;;;;;4333153;32;318706;-84
2023/10/29 04:39:55;;;;;;;9.10;4.63;;;;;;;;;;4332692;32;317608;-85
2023/10/29 04:42:21;;;;;;;9.20;5.13;;;;;;;;;;4342798;32;317516;-82
2023/10/29 04:44:48;;;;;;;14.33;5.40;;;;;;;;;;4333934;32;320899;-84
2023/10/29 04:47:16;;;;;;;8.37;5.70;;;;;;;;;;4346081;32;318041;-83
2023/10/29 04:49:44;;;;;;;13.90;5.17;;;;;;;;;;4345905;32;317311;-86
2023/10/29 04:52:13;;;;;;;9.50;4.93;;;;;;;;;;4329885;32;318340;-82
2023/10/29 04:54:42;;;;;;;10.63;4.20;;;;;;;;;;4345661;32;317278;-84
2023/10/29 04:57:10;;;;;;;8.77;4.50;;;;;;;;;;4335190;32;318394;-82
2023/10/29 04:59:37;;;;;;;11.93;4.93;;;;;;;;;;4346663;32;317268;-83
2023/10/29 05:02:04;;;;;;;12.40;4.80;;;;;;;;;;4328828;32;318457;-83
2023/10/29 05:04:31;;;;;;;12.10;5.20;;;;;;;;;;4345019;32;317951;-82
2023/10/29 05:06:58;;;;;;;10.03;5.30;;;;;;;;;;4335435;32;317568;-84
2023/10/29 05:09:25;;;;;;;15.67;5.77;;;;;;;;;;4344495;32;318185;-82
2023/10/29 05:11:51;;;;;;;19.83;7.27;;;;;;;;;;4333571;32;318633;-81
2023/10/29 05:14:20;;;;;;;14.83;6.83;;;;;;;;;;4328981;32;318539;-84
2023/10/29 05:16:47;;;;;;;19.83;9.77;;;;;;;;;;4342258;32;318741;-84
2023/10/29 05:19:14;;;;;;;47.00;21.63;;;;;;;;;;4331292;32;318615;-82
2023/10/29 05:21:41;;;;;;;37.03;17.70;;;;;;;;;;4325762;32;319981;-83
2023/10/29 05:24:09;;;;;;;25.93;12.00;;;;;;;;;;4329717;32;319276;-84
2023/10/29 05:26:36;;;;;;;30.13;9.97;;;;;;;;;;4343919;32;319287;-84
2023/10/29 05:29:04;;;;;;;16.80;9.57;;;;;;;;;;4334789;32;331044;-85
2023/10/29 05:31:33;;;;;;;14.63;8.40;;;;;;;;;;4345628;32;318607;-81
2023/10/29 05:34:01;;;;;;;13.20;8.03;;;;;;;;;;4331951;32;318704;-83
2023/10/29 05:36:28;;;;;;;14.27;9.13;;;;;;;;;;4343797;32;317704;-84
2023/10/29 05:38:54;;;;;;;18.70;11.63;;;;;;;;;;4334017;32;318561;-84
2023/10/29 05:41:21;;;;;;;21.27;14.13;;;;;;;;;;4345566;32;319278;-82
2023/10/29 05:43:48;;;;;;;28.57;14.97;;;;;;;;;;4330679;32;319304;-81
2023/10/29 05:46:15;;;;;;;24.83;13.87;;;;;;;;;;4336764;32;318924;-82
2023/10/29 05:48:43;;;;;;;30.60;13.90;;;;;;;;;;4342124;32;319239;-82
2023/10/29 05:51:12;;;;;;;21.43;14.07;;;;;;;;;;4333935;32;318947;-83
2023/10/29 05:53:39;;;;;;;24.63;11.77;;;;;;;;;;4343657;32;319353;-81
2023/10/29 05:56:07;;;;;;;19.73;10.80;;;;;;;;;;4325651;32;319769;-84
2023/10/29 05:58:34;;;;;;;19.53;10.90;;;;;;;;;;4345880;32;319733;-81
2023/10/29 06:01:01;;;;;;;22.30;11.60;;;;;;;;;;4336800;32;319159;-79
2023/10/29 06:03:28;;;;;;;19.03;12.13;;;;;;;;;;4354189;32;318752;-78
2023/10/29 06:05:56;;;;;;;25.50;9.87;;;;;;;;;;4341018;32;318340;-86
2023/10/29 06:08:23;;;;;;;16.80;11.10;;;;;;;;;;4352512;32;318497;-79
2023/10/29 06:10:50;;;;;;;22.97;10.60;;;;;;;;;;4334523;32;319513;-82
2023/10/29 06:13:17;;;;;;;24.53;11.73;;;;;;;;;;4344930;32;319605;-83
2023/10/29 06:15:44;;;;;;;19.23;10.67;;;;;;;;;;4345619;32;320022;-85
2023/10/29 06:18:11;;;;;;;22.47;11.03;;;;;;;;;;4329815;32;319333;-80
2023/10/29 06:20:40;;;;;;;18.83;9.90;;;;;;;;;;4348975;32;323417;-81
2023/10/29 06:23:08;;;;;;;18.67;11.63;;;;;;;;;;4336133;32;318441;-79
2023/10/29 06:25:34;;;;;;;16.53;10.60;;;;;;;;;;4346263;32;319286;-81
2023/10/29 06:28:03;;;;;;;27.63;10.50;;;;;;;;;;4331281;32;319597;-80
2023/10/29 06:30:30;;;;;;;20.80;10.37;;;;;;;;;;4347177;32;319789;-79
2023/10/29 06:32:59;;;;;;;21.00;11.07;;;;;;;;;;4336736;32;319746;-80
2023/10/29 06:35:26;;;;;;;22.73;10.53;;;;;;;;;;4346969;32;319759;-79
2023/10/29 06:37:53;;;;;;;15.53;9.43;;;;;;;;;;4333787;32;319581;-81
2023/10/29 06:40:21;;;;;;;21.83;10.20;;;;;;;;;;4342966;32;319186;-85
2023/10/29 06:42:48;;;;;;;17.53;9.07;;;;;;;;;;4320722;32;319565;-84
2023/10/29 06:45:15;;;;;;;24.63;9.60;;;;;;;;;;4331275;32;318433;-81
2023/10/29 06:47:42;;;;;;;21.00;11.37;;;;;;;;;;4330583;32;318441;-79
2023/10/29 06:50:10;;;;;;;26.57;13.50;;;;;;;;;;4320592;32;319651;-80
2023/10/29 06:52:37;;;;;;;25.20;16.27;;;;;;;;;;4346653;32;319490;-82
2023/10/29 06:55:04;;;;;;;28.90;14.17;;;;;;;;;;4334931;32;353320;-80
2023/10/29 06:57:32;;;;;;;23.63;13.20;;;;;;;;;;4345521;32;319857;-85
2023/10/29 07:00:00;;;;;;;24.20;12.60;;;;;;;;;;4326956;32;319582;-88
2023/10/29 07:02:27;;;;;;;14.20;9.83;;;;;;;;;;4345933;32;319284;-85
2023/10/29 07:04:58;;;;;;;21.23;11.17;;;;;;;;;;4335544;32;318830;-86
2023/10/29 07:07:29;;;;;;;13.87;8.00;;;;;;;;;;4346015;32;319557;-90
2023/10/29 07:09:56;;;;;;;19.07;10.73;;;;;;;;;;4328187;32;319207;-87
2023/10/29 07:12:25;;;;;;;20.00;12.00;;;;;;;;;;4346568;32;319202;-86
2023/10/29 07:14:53;;;;;;;16.67;10.93;;;;;;;;;;4335468;32;319621;-86
2023/10/29 07:17:20;;;;;;;14.87;9.23;;;;;;;;;;4345333;32;319565;-87
2023/10/29 07:19:49;;;;;;;13.70;7.23;;;;;;;;;;4346457;32;318299;-90
2023/10/29 07:22:16;;;;;;;13.97;6.60;;;;;;;;;;4324531;32;417323;-84
2023/10/29 07:24:49;;;;;;;12.63;5.27;;;;;;;;;;4345585;32;318388;-85
2023/10/29 07:27:16;;;;;;;7.10;5.73;;;;;;;;;;4332979;32;419288;-85
2023/10/29 07:29:43;;;;;;;8.17;5.57;;;;;;;;;;4358017;32;316442;-92
2023/10/29 07:32:11;;;;;;;9.33;5.80;;;;;;;;;;4343690;32;317659;-90
2023/10/29 07:34:38;;;;;;;8.97;6.07;;;;;;;;;;4361319;32;316483;-90
2023/10/29 07:37:05;;;;;;;9.03;6.23;;;;;;;;;;4337677;32;317035;-90
2023/10/29 07:39:32;;;;;;;14.13;8.27;;;;;;;;;;4344362;32;354262;-92
2023/10/29 07:41:58;;;;;;;20.63;11.20;;;;;;;;;;4329079;32;318162;-91
2023/10/29 07:44:25;;;;;;;11.03;6.80;;;;;;;;;;4344235;32;318969;-88
2023/10/29 07:46:52;;;;;;;9.57;5.13;;;;;;;;;;4333225;32;332780;-90
2023/10/29 07:49:20;;;;;;;10.67;4.77;;;;;;;;;;4346164;32;316797;-89
2023/10/29 07:51:49;;;;;;;7.40;4.87;;;;;;;;;;4343577;32;318135;-92
2023/10/29 07:54:16;;;;;;;10.23;5.27;;;;;;;;;;4326334;32;417624;-87
2023/10/29 07:56:42;;;;;;;7.73;4.70;;;;;;;;;;4335394;32;318547;-84
2023/10/29 07:59:09;;;;;;;11.10;4.73;;;;;;;;;;4319310;32;317518;-87
2023/10/29 08:01:36;;;;;;;16.95;6.15;;;;;;;;;;4351170;32;328481;-87
2023/10/29 08:04:02;;;;;;;17.35;4.75;;;;;;;;;;4341897;32;318256;-89
2023/10/29 08:06:31;;;;;;;13.23;6.20;;;;;;;;;;4359732;32;317885;-88
2023/10/29 08:08:58;;;;;;;17.33;6.40;;;;;;;;;;4350097;32;318456;-82
2023/10/29 08:11:24;;;;;;;12.68;5.65;;;;;;;;;;4359082;32;318201;-81
2023/10/29 08:13:51;;;;;;;14.63;5.57;;;;;;;;;;4347465;32;318517;-83
2023/10/29 08:16:18;;;;;;;11.38;6.65;;;;;;;;;;4333765;32;317488;-86
2023/10/29 08:18:45;;;;;;;11.10;6.47;;;;;;;;;;4354874;32;317886;-84
2023/10/29 08:21:12;;;;;;;10.23;6.43;;;;;;;;;;4346428;32;317706;-83
2023/10/29 08:23:40;;;;;;;10.35;6.75;;;;;;;;;;4358798;32;318821;-81
2023/10/29 08:26:06;;;;;;;11.57;8.23;;;;;;;;;;4343238;32;318501;-83
2023/10/29 08:28:33;;;;;;;10.25;5.43;;;;;;;;;;4354134;32;318651;-81
2023/10/29 08:31:00;;;;;;;12.45;4.62;;;;;;;;;;4335095;32;318142;-83
2023/10/29 08:33:27;;;;;;;10.48;5.40;;;;;;;;;;4345525;32;318112;-82
2023/10/29 08:35:54;;;;;;;11.95;4.28;;;;;;;;;;4333823;32;318415;-82
2023/10/29 08:38:21;;;;;;;9.43;4.97;;;;;;;;;;4341733;32;316783;-82
2023/10/29 08:40:49;;;;;;;6.72;4.12;;;;;;;;;;4344368;32;317500;-83
2023/10/29 08:43:15;;;;;;;13.98;3.70;;;;;;;;;;4332682;32;417530;-83
2023/10/29 08:45:42;;;;;;;7.95;4.35;;;;;;;;;;4344198;32;318241;-83
2023/10/29 08:48:10;;;;;;;10.48;4.50;;;;;;;;;;4327029;32;317223;-83
2023/10/29 08:50:36;;;;;;;9.70;5.10;;;;;;;;;;4344104;32;318252;-83
2023/10/29 08:53:03;;;;;;;9.13;4.87;;;;;;;;;;4333788;32;316911;-83
2023/10/29 08:55:30;;;;;;;15.40;4.65;;;;;;;;;;4344984;32;317075;-82
2023/10/29 08:57:58;;;;;;;7.57;4.20;;;;;;;;;;4329179;32;318349;-82
2023/10/29 09:00:25;;;;;;;9.02;4.53;;;;;;;;;;4343172;32;338416;-82
2023/10/29 09:02:55;;;;;;;8.52;3.92;;;;;;;;;;4333641;32;317334;-83
2023/10/29 09:05:21;;;;;;;9.55;3.95;;;;;;;;;;4344820;32;317343;-82
2023/10/29 09:07:48;;;;;;;13.57;4.20;;;;;;;;;;4338068;32;317895;-84
2023/10/29 09:10:15;;;;;;;12.40;3.90;;;;;;;;;;4336711;32;318287;-79
2023/10/29 09:12:42;;;;;;;13.02;3.72;;;;;;;;;;4344310;32;317817;-79
2023/10/29 09:15:11;;;;;;;14.65;3.65;;;;;;;;;;4333593;32;318572;-78
2023/10/29 09:17:38;;;;;;;5.00;2.92;;;;;;;;;;4342815;32;318291;-78
2023/10/29 09:20:06;;;;;;;8.65;3.75;;;;;;;;;;4327474;32;337257;-78
2023/10/29 09:22:34;;;;;;;10.93;3.83;;;;;;;;;;4343254;32;317305;-77
2023/10/29 09:25:00;;;;;;;8.85;3.53;;;;;;;;;;4320698;32;318728;-82
2023/10/29 09:27:27;;;;;;;6.82;3.40;;;;;;;;;;4341195;32;317464;-79
2023/10/29 09:29:55;;;;;;;11.77;3.75;;;;;;;;;;4334347;32;317377;-79
2023/10/29 09:32:24;;;;;;;9.07;3.95;;;;;;;;;;4341161;32;353873;-78
2023/10/29 09:34:52;;;;;;;8.32;2.95;;;;;;;;;;4333006;32;316514;-80
2023/10/29 09:37:19;;;;;;;6.43;2.92;;;;;;;;;;4321306;32;316789;-79
2023/10/29 09:39:46;;;;;;;6.57;3.17;;;;;;;;;;4344462;32;321663;-80
2023/10/29 09:42:18;;;;;;;12.40;3.25;;;;;;;;;;4325171;32;317347;-81
2023/10/29 09:44:49;;;;;;;9.35;2.62;;;;;;;;;;4345139;32;318106;-82
2023/10/29 09:47:17;;;;;;;9.32;3.03;;;;;;;;;;4331845;32;415737;-79
2023/10/29 09:49:45;;;;;;;4.87;2.47;;;;;;;;;;4344278;32;316674;-87
2023/10/29 09:52:16;;;;;;;9.23;2.78;;;;;;;;;;4327459;32;316708;-86
2023/10/29 09:54:46;;;;;;;6.65;2.50;;;;;;;;;;4345608;32;317533;-87
2023/10/29 09:57:13;;;;;;;15.18;2.67;;;;;;;;;;4328548;32;417561;-85
2023/10/29 09:59:40;;;;;;;11.00;3.42;;;;;;;;;;4344530;32;325636;-86
2023/10/29 10:02:07;;;;;;;11.68;2.30;;;;;;;;;;4326660;32;317689;-85
2023/10/29 10:04:38;;;;;;;7.68;2.33;;;;;;;;;;4342649;32;317817;-85
2023/10/29 10:07:06;;;;;;;4.40;1.87;;;;;;;;;;4341941;32;317060;-86
2023/10/29 10:09:51;;;;;;;9.88;2.72;;;;;;;;;;4343495;32;316520;-87
2023/10/29 10:12:18;;;;;;;9.20;2.03;;;;;;;;;;4324380;32;416836;-86
2023/10/29 10:14:45;;;;;;;16.00;3.72;;;;;;;;;;4344891;32;316705;-87
2023/10/29 10:17:12;;;;;;;13.15;2.87;;;;;;;;;;4334439;32;317404;-88
2023/10/29 10:19:40;;;;;;;16.58;2.78;;;;;;;;;;4341715;32;318279;-87
2023/10/29 10:22:09;;;;;;;5.17;1.73;;;;;;;;;;4324865;32;333632;-87
2023/10/29 10:24:40;;;;;;;8.32;2.42;;;;;;;;;;4354937;32;317375;-87
2023/10/29 10:27:07;;;;;;;7.62;1.98;;;;;;;;;;4340295;32;316451;-85
2023/10/29 10:29:34;;;;;;;5.53;2.15;;;;;;;;;;4359292;32;317225;-87
2023/10/29 10:32:02;;;;;;;5.10;1.92;;;;;;;;;;4344732;32;315459;-86
2023/10/29 10:34:30;;;;;;;44.15;4.80;;;;;;;;;;4356476;32;316287;-86
2023/10/29 10:37:00;;;;;;;30.15;2.87;;;;;;;;;;4328447;32;318233;-87
2023/10/29 10:39:31;;;;;;;12.85;2.05;;;;;;;;;;4344383;32;318412;-86
2023/10/29 10:42:00;;;;;;;5.50;2.15;;;;;;;;;;4321915;32;318096;-89
2023/10/29 10:44:29;;;;;;;5.80;1.42;;;;;;;;;;4339464;32;317147;-84
2023/10/29 10:46:58;;;;;;;22.77;2.30;;;;;;;;;;4330022;32;317028;-86
2023/10/29 10:49:25;;;;;;;12.65;2.30;;;;;;;;;;4340044;32;317989;-86
2023/10/29 10:51:54;;;;;;;7.70;1.58;;;;;;;;;;4330609;32;318329;-86
2023/10/29 10:54:22;;;;;;;7.35;1.65;;;;;;;;;;4336523;32;317035;-83
2023/10/29 10:56:52;;;;;;;5.97;1.48;;;;;;;;;;4334143;32;316918;-85
2023/10/29 10:59:22;;;;;;;4.37;1.25;;;;;;;;;;4341319;32;317481;-85
2023/10/29 11:01:50;;;;;;;6.35;2.15;;;;;;;;;;4330795;32;319070;-85
2023/10/29 11:04:18;;;;;;;5.22;1.40;;;;;;;;;;4319963;32;317552;-84
2023/10/29 11:06:45;;;;;;;3.33;1.08;;;;;;;;;;4342703;32;343637;-87
2023/10/29 11:09:14;;;;;;;1.67;0.93;;;;;;;;;;4335253;32;317341;-87
2023/10/29 11:11:46;;;;;;;6.72;1.30;;;;;;;;;;4346080;32;317178;-87
2023/10/29 11:14:15;;;;;;;5.78;1.45;;;;;;;;;;4329716;32;317237;-85
2023/10/29 11:16:53;;;;;;;6.43;1.73;;;;;;;;;;4345887;32;316767;-86
2023/10/29 11:19:49;;;;;;;4.25;1.30;;;;;;;;;;4333574;32;416657;-86
2023/10/29 11:22:17;;;;;;;3.87;1.33;;;;;;;;;;4324598;32;417711;-87
2023/10/29 11:24:44;;;;;;;4.07;1.27;;;;;;;;;;4345565;32;317518;-84
2023/10/29 11:27:36;;;;;;;2.85;1.50;;;;;;;;;;4332315;32;317162;-84
2023/10/29 11:30:23;;;;;;;3.22;1.30;;;;;;;;;;4328858;32;317621;-86
2023/10/29 11:33:18;;;;;;;8.75;1.35;;;;;;;;;;4336221;32;316570;-87
2023/10/29 11:35:45;;;;;;;3.20;1.10;;;;;;;;;;4344714;32;317637;-86
2023/10/29 11:38:29;;;;;;;6.05;1.37;;;;;;;;;;4327932;32;317834;-83
2023/10/29 11:40:56;;;;;;;8.82;1.45;;;;;;;;;;4335440;32;316771;-85
2023/10/29 11:43:23;;;;;;;5.50;1.70;;;;;;;;;;4342748;32;318067;-86
2023/10/29 11:45:59;;;;;;;3.65;1.58;;;;;;;;;;4330996;32;358985;-82
2023/10/29 11:48:29;;;;;;;5.30;1.80;;;;;;;;;;4345170;32;316912;-81
2023/10/29 11:51:17;;;;;;;5.00;1.67;;;;;;;;;;4334192;32;317066;-88
2023/10/29 11:53:44;;;;;;;4.93;1.25;;;;;;;;;;4344597;32;317600;-88
2023/10/29 11:56:13;;;;;;;5.70;1.70;;;;;;;;;;4329047;32;318008;-86
2023/10/29 11:58:40;;;;;;;5.87;1.30;;;;;;;;;;4344264;32;316922;-91
2023/10/29 12:01:08;;;;;;;6.57;2.00;;;;;;;;;;4333798;32;317342;-88
2023/10/29 12:03:35;;;;;;;5.47;1.48;;;;;;;;;;4345172;32;317253;-91
2023/10/29 12:06:02;;;;;;;4.18;1.52;;;;;;;;;;4327619;32;317646;-90
2023/10/29 12:08:32;;;;;;;5.07;1.55;;;;;;;;;;4345236;32;316398;-93
2023/10/29 12:10:59;;;;;;;3.78;1.55;;;;;;;;;;4323017;32;317306;-90
2023/10/29 12:13:28;;;;;;;6.43;1.58;;;;;;;;;;4343248;32;317105;-89
2023/10/29 12:15:57;;;;;;;3.30;1.35;;;;;;;;;;4332285;32;317186;-81
2023/10/29 12:18:26;;;;;;;4.43;1.30;;;;;;;;;;4341152;32;317233;-87
2023/10/29 12:21:04;;;;;;;5.57;1.52;;;;;;;;;;4319816;32;317174;-88
2023/10/29 12:23:32;;;;;;;4.37;1.70;;;;;;;;;;4343236;32;340616;-89
2023/10/29 12:26:02;;;;;;;5.25;1.37;;;;;;;;;;4328343;32;317275;-83
2023/10/29 12:28:28;;;;;;;4.20;1.55;;;;;;;;;;4343846;32;317342;-83
2023/10/29 12:30:56;;;;;;;2.28;1.20;;;;;;;;;;4334217;32;327782;-84
2023/10/29 12:33:26;;;;;;;1.92;1.20;;;;;;;;;;4343318;32;316673;-82
2023/10/29 12:35:54;;;;;;;5.55;1.92;;;;;;;;;;4330447;32;317174;-85
2023/10/29 12:38:21;;;;;;;2.80;1.27;;;;;;;;;;4339256;32;317471;-85
2023/10/29 12:41:06;;;;;;;2.72;1.42;;;;;;;;;;4343296;32;317850;-84
2023/10/29 12:43:36;;;;;;;6.68;1.42;;;;;;;;;;4345350;32;317252;-84
2023/10/29 12:46:05;;;;;;;8.35;1.42;;;;;;;;;;4325662;32;317059;-85
2023/10/29 12:48:33;;;;;;;3.65;1.42;;;;;;;;;;4342841;32;317140;-85
2023/10/29 12:51:00;;;;;;;4.62;1.27;;;;;;;;;;4330507;32;317614;-85
2023/10/29 12:53:28;;;;;;;3.95;1.23;;;;;;;;;;4343545;32;316834;-85
2023/10/29 12:55:57;;;;;;;5.85;1.30;;;;;;;;;;4331547;32;316566;-85
2023/10/29 12:58:24;;;;;;;4.85;1.85;;;;;;;;;;4343712;32;316718;-85
2023/10/29 13:00:52;;;;;;;6.47;2.12;;;;;;;;;;4333249;32;353490;-85
2023/10/29 13:03:18;;;;;;;6.25;1.40;;;;;;;;;;4343369;32;316961;-85
2023/10/29 13:05:46;;;;;;;8.65;1.27;;;;;;;;;;4343770;32;316789;-84
2023/10/29 13:08:14;;;;;;;3.08;1.27;;;;;;;;;;4325460;32;316400;-85
2023/10/29 13:10:46;;;;;;;6.43;1.20;;;;;;;;;;4344616;32;317202;-85
2023/10/29 13:13:13;;;;;;;6.60;1.60;;;;;;;;;;4331581;32;317629;-83
2023/10/29 13:15:41;;;;;;;5.18;1.58;;;;;;;;;;4338956;32;316923;-86
2023/10/29 13:18:08;;;;;;;8.43;1.80;;;;;;;;;;4324952;32;316778;-85
2023/10/29 13:20:35;;;;;;;8.13;1.95;;;;;;;;;;4342339;32;317117;-85
2023/10/29 13:23:03;;;;;;;6.07;1.92;;;;;;;;;;4330383;32;317879;-85
2023/10/29 13:25:30;;;;;;;6.22;1.70;;;;;;;;;;4340543;32;316579;-85
2023/10/29 13:27:58;;;;;;;8.85;2.17;;;;;;;;;;4326035;32;317755;-88
2023/10/29 13:30:27;;;;;;;5.15;1.50;;;;;;;;;;4340579;32;316935;-87
2023/10/29 13:32:53;;;;;;;7.03;1.83;;;;;;;;;;4331606;32;316704;-86
2023/10/29 13:35:20;;;;;;;8.35;2.67;;;;;;;;;;4344815;32;317533;-86
2023/10/29 13:37:47;;;;;;;6.30;2.17;;;;;;;;;;4343059;32;316893;-85
2023/10/29 13:40:15;;;;;;;5.03;1.80;;;;;;;;;;4324107;32;418397;-85
2023/10/29 13:42:42;;;;;;;4.85;1.87;;;;;;;;;;4343553;32;317111;-85
2023/10/29 13:45:10;;;;;;;8.60;2.28;;;;;;;;;;4333317;32;317151;-87
2023/10/29 13:47:37;;;;;;;4.62;1.73;;;;;;;;;;4343057;32;317791;-89
2023/10/29 13:50:05;;;;;;;1.83;1.35;;;;;;;;;;4325040;32;317121;-88
2023/10/29 13:52:31;;;;;;;5.97;2.55;;;;;;;;;;4342068;32;316651;-90
2023/10/29 13:54:58;;;;;;;4.07;1.98;;;;;;;;;;4335241;32;317336;-90
2023/10/29 13:57:26;;;;;;;4.75;1.95;;;;;;;;;;4343967;32;317402;-88
2023/10/29 13:59:53;;;;;;;8.60;2.55;;;;;;;;;;4334314;32;317279;-87
2023/10/29 14:02:19;;;;;;;4.93;2.12;;;;;;;;;;4338224;32;317111;-89
2023/10/29 14:04:46;;;;;;;9.68;2.67;;;;;;;;;;4342989;32;333567;-87
2023/10/29 14:07:13;;;;;;;10.68;2.50;;;;;;;;;;4335483;32;317416;-88
2023/10/29 14:09:40;;;;;;;5.78;2.00;;;;;;;;;;4344961;32;318384;-87
2023/10/29 14:12:07;;;;;;;4.18;1.37;;;;;;;;;;4326676;32;317570;-85
2023/10/29 14:14:36;;;;;;;4.65;1.75;;;;;;;;;;4345112;32;316462;-88
2023/10/29 14:17:05;;;;;;;6.00;2.10;;;;;;;;;;4334765;32;317602;-87
2023/10/29 14:19:33;;;;;;;5.95;2.20;;;;;;;;;;4348411;32;317375;-85
2023/10/29 14:22:00;;;;;;;4.93;1.60;;;;;;;;;;4332008;32;317397;-85
2023/10/29 14:24:26;;;;;;;4.62;1.87;;;;;;;;;;4349843;32;316527;-85